createdAt,value
2023-06-19T00:01:11.228Z,26.30
2023-06-19T00:03:37.996Z,26.30
2023-06-19T00:06:06.165Z,26.30
2023-06-19T00:08:32.838Z,26.30
2023-06-19T00:10:59.537Z,26.20
2023-06-19T00:13:26.302Z,26.20
2023-06-19T00:15:53.154Z,26.20
2023-06-19T00:18:21.066Z,26.20
2023-06-19T00:20:48.063Z,26.20
2023-06-19T00:23:17.880Z,26.20
2023-06-19T00:25:45.423Z,26.20
2023-06-19T00:28:14.818Z,26.20
2023-06-19T00:30:42.506Z,26.20
2023-06-19T00:33:09.835Z,26.20
2023-06-19T00:35:36.613Z,26.20
2023-06-19T00:38:03.615Z,26.20
2023-06-19T00:40:34.879Z,26.20
2023-06-19T00:43:02.363Z,26.10
2023-06-19T00:45:29.285Z,26.10
2023-06-19T00:47:57.961Z,26.10
2023-06-19T00:50:25.419Z,26.00
2023-06-19T00:52:52.806Z,26.00
2023-06-19T00:55:19.715Z,26.00
2023-06-19T00:57:47.244Z,26.00
2023-06-19T01:00:14.620Z,26.00
2023-06-19T01:02:41.930Z,25.90
2023-06-19T01:05:08.911Z,25.90
2023-06-19T01:07:48.856Z,25.80
2023-06-19T01:10:20.558Z,25.80
2023-06-19T01:12:59.960Z,25.80
2023-06-19T01:15:27.157Z,25.80
2023-06-19T01:17:56.085Z,25.80
2023-06-19T01:20:23.227Z,25.70
2023-06-19T01:22:50.114Z,25.70
2023-06-19T01:25:16.875Z,25.70
2023-06-19T01:27:43.810Z,25.70
2023-06-19T01:30:12.561Z,25.60
2023-06-19T01:33:00.151Z,25.70
2023-06-19T01:35:30.594Z,25.60
2023-06-19T01:37:58.257Z,25.60
2023-06-19T01:40:27.190Z,25.60
2023-06-19T01:42:55.547Z,25.60
2023-06-19T01:45:22.345Z,25.50
2023-06-19T01:47:49.362Z,25.50
2023-06-19T01:50:16.471Z,25.50
2023-06-19T01:52:43.379Z,25.50
2023-06-19T01:55:10.529Z,25.50
2023-06-19T01:57:39.946Z,25.40
2023-06-19T02:00:11.259Z,25.40
2023-06-19T02:02:38.876Z,25.40
2023-06-19T02:05:06.301Z,25.40
2023-06-19T02:07:33.040Z,25.40
2023-06-19T02:09:59.731Z,25.40
2023-06-19T02:12:26.450Z,25.40
2023-06-19T02:14:53.141Z,25.40
2023-06-19T02:17:19.892Z,25.40
2023-06-19T02:19:46.565Z,25.30
2023-06-19T02:22:13.410Z,25.30
2023-06-19T02:24:40.533Z,25.30
2023-06-19T02:27:07.658Z,25.30
2023-06-19T02:29:35.031Z,25.30
2023-06-19T02:32:02.670Z,25.30
2023-06-19T02:34:29.497Z,25.30
2023-06-19T02:36:56.226Z,25.30
2023-06-19T02:39:24.174Z,25.30
2023-06-19T02:41:51.158Z,25.30
2023-06-19T02:44:17.924Z,25.30
2023-06-19T02:46:44.662Z,25.30
2023-06-19T02:49:11.330Z,25.30
2023-06-19T02:51:39.032Z,25.30
2023-06-19T02:54:07.636Z,25.30
2023-06-19T02:56:34.482Z,25.30
2023-06-19T02:59:01.213Z,25.30
2023-06-19T03:01:28.443Z,25.20
2023-06-19T03:03:55.179Z,25.20
2023-06-19T03:06:21.955Z,25.20
2023-06-19T03:08:48.724Z,25.20
2023-06-19T03:11:15.578Z,25.20
2023-06-19T03:13:51.362Z,25.20
2023-06-19T03:16:18.356Z,25.20
2023-06-19T03:18:46.113Z,25.20
2023-06-19T03:21:13.898Z,25.20
2023-06-19T03:23:42.328Z,25.20
2023-06-19T03:26:10.072Z,25.20
2023-06-19T03:28:37.027Z,25.20
2023-06-19T03:31:04.062Z,25.20
2023-06-19T03:33:30.921Z,25.20
2023-06-19T03:35:58.040Z,25.20
2023-06-19T03:38:24.794Z,25.10
2023-06-19T03:40:51.463Z,25.10
2023-06-19T03:43:18.240Z,25.10
2023-06-19T03:45:45.108Z,25.10
2023-06-19T03:48:11.878Z,25.10
2023-06-19T03:50:38.557Z,25.10
2023-06-19T03:53:05.728Z,25.10
2023-06-19T03:55:32.629Z,25.00
2023-06-19T03:57:59.437Z,25.00
2023-06-19T04:00:26.422Z,25.00
2023-06-19T04:02:53.432Z,25.00
2023-06-19T04:05:21.012Z,25.00
2023-06-19T04:07:48.388Z,24.90
2023-06-19T04:15:10.606Z,24.90
2023-06-19T04:17:37.653Z,24.90
2023-06-19T04:20:12.181Z,24.90
2023-06-19T04:22:40.340Z,24.80
2023-06-19T04:25:08.588Z,24.80
2023-06-19T04:27:35.613Z,24.80
2023-06-19T04:30:05.097Z,24.80
2023-06-19T04:32:31.945Z,24.80
2023-06-19T04:34:58.956Z,24.80
2023-06-19T04:37:25.719Z,24.80
2023-06-19T04:39:52.491Z,24.70
2023-06-19T04:42:20.633Z,24.70
2023-06-19T04:44:48.066Z,24.70
2023-06-19T04:47:19.116Z,24.70
2023-06-19T04:49:45.813Z,24.70
2023-06-19T04:52:12.591Z,24.60
2023-06-19T04:54:39.459Z,24.60
2023-06-19T04:57:07.476Z,24.60
2023-06-19T04:59:34.666Z,24.60
2023-06-19T05:02:01.790Z,24.60
2023-06-19T05:04:28.685Z,24.50
2023-06-19T05:06:55.507Z,24.50
2023-06-19T05:09:22.248Z,24.50
2023-06-19T05:11:49.001Z,24.50
2023-06-19T05:14:15.690Z,24.50
2023-06-19T05:16:43.061Z,24.50
2023-06-19T05:19:10.122Z,24.60
2023-06-19T05:21:37.363Z,24.60
2023-06-19T05:24:04.599Z,24.60
2023-06-19T05:26:31.405Z,24.70
2023-06-19T05:28:58.181Z,24.70
2023-06-19T05:31:25.001Z,24.60
2023-06-19T05:33:51.736Z,24.60
2023-06-19T05:36:18.447Z,24.50
2023-06-19T05:38:45.135Z,24.50
2023-06-19T05:41:12.855Z,24.50
2023-06-19T05:43:39.778Z,24.50
2023-06-19T05:46:06.567Z,24.50
2023-06-19T05:48:33.463Z,24.40
2023-06-19T05:51:00.220Z,24.40
2023-06-19T05:53:27.050Z,24.40
2023-06-19T05:58:22.426Z,24.30
2023-06-19T06:00:49.434Z,24.20
2023-06-19T06:03:16.219Z,24.20
2023-06-19T06:05:43.158Z,24.20
2023-06-19T06:08:10.048Z,24.20
2023-06-19T06:10:36.840Z,24.20
2023-06-19T06:13:03.584Z,24.20
2023-06-19T06:15:30.486Z,24.20
2023-06-19T06:17:57.202Z,24.20
2023-06-19T06:20:24.192Z,24.30
2023-06-19T06:22:51.193Z,24.30
2023-06-19T06:25:18.011Z,24.30
2023-06-19T06:27:45.327Z,24.30
2023-06-19T06:30:13.102Z,24.30
2023-06-19T06:32:40.120Z,24.40
2023-06-19T06:35:07.542Z,24.30
2023-06-19T06:37:34.228Z,24.30
2023-06-19T06:40:01.015Z,24.30
2023-06-19T06:42:27.791Z,24.40
2023-06-19T06:44:54.542Z,24.40
2023-06-19T06:47:21.387Z,24.40
2023-06-19T06:49:48.186Z,24.40
2023-06-19T06:52:14.938Z,24.40
2023-06-19T06:54:41.640Z,24.30
2023-06-19T06:57:08.343Z,24.20
2023-06-19T06:59:35.153Z,24.20
2023-06-19T07:02:01.952Z,24.30
2023-06-19T07:04:28.776Z,24.20
2023-06-19T07:06:55.708Z,24.20
2023-06-19T07:09:22.597Z,24.20
2023-06-19T07:11:51.606Z,24.20
2023-06-19T07:14:20.209Z,24.20
2023-06-19T07:16:47.114Z,24.20
2023-06-19T07:19:14.827Z,24.30
2023-06-19T07:21:42.177Z,24.30
2023-06-19T07:24:09.462Z,24.30
2023-06-19T07:26:36.412Z,24.30
2023-06-19T07:29:03.549Z,24.40
2023-06-19T07:31:30.402Z,24.30
2023-06-19T07:33:57.250Z,24.40
2023-06-19T07:36:23.968Z,24.40
2023-06-19T07:38:50.751Z,24.40
2023-06-19T07:41:17.482Z,24.40
2023-06-19T07:43:44.399Z,24.40
2023-06-19T07:46:12.314Z,24.40
2023-06-19T07:48:39.047Z,24.40
2023-06-19T07:51:05.814Z,24.50
2023-06-19T07:53:32.543Z,24.50
2023-06-19T07:55:59.320Z,24.50
2023-06-19T07:58:26.122Z,24.50
2023-06-19T08:00:52.893Z,24.50
2023-06-19T08:03:19.905Z,24.60
2023-06-19T08:05:46.783Z,24.50
2023-06-19T08:08:14.441Z,24.50
2023-06-19T08:10:42.076Z,24.40
2023-06-19T08:13:09.025Z,24.40
2023-06-19T08:15:36.238Z,24.30
2023-06-19T08:18:03.634Z,24.30
2023-06-19T08:20:30.409Z,24.30
2023-06-19T08:22:57.799Z,24.30
2023-06-19T08:25:24.656Z,24.30
2023-06-19T08:27:51.525Z,24.30
2023-06-19T08:30:18.290Z,24.30
2023-06-19T08:32:47.866Z,24.30
2023-06-19T08:35:15.162Z,24.20
2023-06-19T08:37:41.937Z,24.30
2023-06-19T08:40:10.650Z,24.20
2023-06-19T08:42:38.057Z,24.30
2023-06-19T08:45:05.772Z,24.20
2023-06-19T08:47:35.912Z,24.30
2023-06-19T08:50:03.196Z,24.30
2023-06-19T08:52:30.145Z,24.30
2023-06-19T08:54:56.872Z,24.30
2023-06-19T08:57:38.158Z,24.30
2023-06-19T09:00:07.592Z,24.40
2023-06-19T09:02:50.334Z,24.40
2023-06-19T09:05:20.373Z,24.40
2023-06-19T09:07:57.380Z,24.40
2023-06-19T09:10:25.358Z,24.50
2023-06-19T09:13:02.573Z,24.50
2023-06-19T09:15:35.452Z,24.50
2023-06-19T09:18:04.036Z,24.40
2023-06-19T09:20:30.980Z,24.40
2023-06-19T09:22:59.007Z,24.40
2023-06-19T09:25:27.866Z,24.40
2023-06-19T09:27:55.745Z,24.40
2023-06-19T09:30:23.181Z,24.40
2023-06-19T09:32:50.493Z,24.40
2023-06-19T09:35:17.783Z,24.50
2023-06-19T09:37:46.674Z,24.50
2023-06-19T09:40:14.259Z,24.50
2023-06-19T09:42:43.689Z,24.50
2023-06-19T09:45:12.465Z,24.50
2023-06-19T09:47:50.411Z,24.50
2023-06-19T09:50:18.975Z,24.50
2023-06-19T09:52:46.254Z,24.50
2023-06-19T09:55:14.292Z,24.60
2023-06-19T09:57:42.886Z,24.60
2023-06-19T10:00:16.514Z,24.60
2023-06-19T10:02:45.319Z,24.50
2023-06-19T10:05:15.817Z,24.50
2023-06-19T10:07:45.092Z,24.60
2023-06-19T10:10:26.314Z,24.60
2023-06-19T10:12:56.487Z,24.60
2023-06-19T10:15:28.570Z,24.60
2023-06-19T10:18:00.550Z,24.60
2023-06-19T10:20:46.338Z,24.70
2023-06-19T10:23:23.197Z,24.70
2023-06-19T10:25:53.906Z,24.70
2023-06-19T10:28:25.534Z,24.70
2023-06-19T10:30:59.880Z,24.70
2023-06-19T10:33:28.912Z,24.80
2023-06-19T10:35:55.952Z,24.80
2023-06-19T10:38:22.850Z,24.80
2023-06-19T10:40:49.641Z,24.80
2023-06-19T10:43:29.114Z,24.90
2023-06-19T10:45:55.970Z,24.90
2023-06-19T10:48:25.053Z,24.90
2023-06-19T10:50:52.311Z,24.90
2023-06-19T10:53:31.043Z,25.00
2023-06-19T10:55:59.988Z,25.00
2023-06-19T10:58:27.692Z,25.00
2023-06-19T11:00:54.716Z,25.00
2023-06-19T11:03:22.250Z,25.00
2023-06-19T11:05:49.744Z,25.10
2023-06-19T11:08:23.314Z,25.10
2023-06-19T11:10:51.077Z,25.20
2023-06-19T11:13:21.372Z,25.20
2023-06-19T11:15:51.633Z,25.20
2023-06-19T11:18:19.888Z,25.20
2023-06-19T11:20:51.747Z,25.30
2023-06-19T11:23:30.444Z,25.30
2023-06-19T11:26:04.892Z,25.30
2023-06-19T11:28:31.872Z,25.30
2023-06-19T11:31:04.136Z,25.30
2023-06-19T11:33:31.426Z,25.30
2023-06-19T11:36:02.184Z,25.40
2023-06-19T11:38:29.041Z,25.40
2023-06-19T11:40:57.310Z,25.40
2023-06-19T11:43:31.757Z,25.50
2023-06-19T11:46:08.831Z,25.50
2023-06-19T11:48:39.289Z,25.50
2023-06-19T11:51:06.166Z,25.50
2023-06-19T11:53:32.971Z,25.60
2023-06-19T11:55:59.702Z,25.60
2023-06-19T14:46:08.614Z,25.70
2023-06-19T14:48:35.334Z,26.90
2023-06-19T14:51:02.716Z,26.90
2023-06-19T14:53:29.416Z,26.90
2023-06-19T14:55:56.370Z,26.90
2023-06-19T14:58:23.239Z,26.90
2023-06-19T15:00:49.938Z,26.90
2023-06-19T15:03:16.894Z,26.90
2023-06-19T15:05:43.722Z,26.90
2023-06-19T15:08:11.357Z,26.90
2023-06-19T15:10:39.167Z,26.90
2023-06-19T15:13:05.937Z,26.90
2023-06-19T15:15:32.694Z,27.00
2023-06-19T15:18:00.572Z,27.00
2023-06-19T15:20:27.300Z,27.00
2023-06-19T22:51:11.385Z,27.00
2023-06-19T22:53:38.789Z,26.60
2023-06-19T22:56:05.501Z,26.50
2023-06-19T22:58:32.324Z,26.50
2023-06-19T23:00:59.077Z,26.50
2023-06-19T23:03:25.962Z,26.50
2023-06-19T23:05:54.536Z,26.50
2023-06-19T23:08:21.270Z,26.50
2023-06-19T23:10:48.007Z,26.50
2023-06-19T23:13:14.735Z,26.50
2023-06-19T23:15:41.454Z,26.50
2023-06-19T23:18:08.294Z,26.50
2023-06-19T23:20:35.014Z,26.50
2023-06-19T23:23:05.903Z,26.50
2023-06-19T23:25:34.553Z,26.50
2023-06-19T23:28:01.511Z,26.50
2023-06-19T23:30:28.297Z,26.50
2023-06-19T23:32:55.053Z,26.50
2023-06-19T23:35:23.936Z,26.50
2023-06-19T23:37:51.055Z,26.50
2023-06-19T23:40:17.741Z,26.50
2023-06-19T23:42:44.407Z,26.50
2023-06-19T23:45:11.374Z,26.50
2023-06-19T23:47:39.574Z,26.50
2023-06-19T23:50:08.268Z,26.50
2023-06-19T23:52:43.473Z,26.50
2023-06-19T23:55:10.752Z,26.50
2023-06-19T23:57:37.492Z,26.50
